createdAt,value
2018-05-13T00:01:49.064Z,67.40
2018-05-13T00:04:17.287Z,67.70
2018-05-13T00:06:44.741Z,67.70
2018-05-13T00:09:12.209Z,67.80
2018-05-13T00:11:39.653Z,68.20
2018-05-13T00:14:07.980Z,68.10
2018-05-13T00:16:35.437Z,68.10
2018-05-13T00:19:02.897Z,67.70
2018-05-13T00:21:30.353Z,67.30
2018-05-13T00:23:58.581Z,67.10
2018-05-13T00:26:26.031Z,67.20
2018-05-13T00:28:53.503Z,67.50
2018-05-13T00:31:20.984Z,67.60
2018-05-13T00:33:48.436Z,67.50
2018-05-13T00:36:16.010Z,67.60
2018-05-13T00:38:43.468Z,67.60
2018-05-13T00:41:10.916Z,67.40
2018-05-13T00:43:39.148Z,66.40
2018-05-13T00:46:06.592Z,66.40
2018-05-13T00:48:34.036Z,66.40
2018-05-13T00:51:01.502Z,66.60
2018-05-13T00:53:29.704Z,66.60
2018-05-13T00:55:57.938Z,66.60
2018-05-13T00:58:25.385Z,66.60
2018-05-13T01:00:52.843Z,66.40
2018-05-13T01:03:21.056Z,66.20
2018-05-13T01:05:48.513Z,66.10
2018-05-13T01:08:15.960Z,66.20
2018-05-13T01:10:44.175Z,65.80
2018-05-13T01:13:11.632Z,65.80
2018-05-13T01:15:39.098Z,65.60
2018-05-13T01:18:06.549Z,65.00
2018-05-13T01:20:34.787Z,64.50
2018-05-13T01:23:02.232Z,64.50
2018-05-13T01:25:29.682Z,64.90
2018-05-13T01:27:57.129Z,65.20
2018-05-13T01:30:25.368Z,65.20
2018-05-13T01:32:52.817Z,64.70
2018-05-13T01:35:20.280Z,64.90
2018-05-13T01:37:47.724Z,65.30
2018-05-13T01:40:15.940Z,65.80
2018-05-13T01:42:43.383Z,65.70
2018-05-13T01:45:11.613Z,66.10
2018-05-13T01:47:39.094Z,66.10
2018-05-13T01:50:06.544Z,66.50
2018-05-13T01:52:33.988Z,66.90
2018-05-13T01:55:02.213Z,67.40
2018-05-13T01:57:29.672Z,67.30
2018-05-13T01:59:57.125Z,66.90
2018-05-13T02:02:24.576Z,67.30
2018-05-13T02:04:52.793Z,67.40
2018-05-13T02:07:20.246Z,67.30
2018-05-13T02:09:47.698Z,67.30
2018-05-13T02:12:15.912Z,67.90
2018-05-13T02:14:43.374Z,67.90
2018-05-13T02:17:10.824Z,67.90
2018-05-13T02:19:39.040Z,68.00
2018-05-13T02:22:06.489Z,67.90
2018-05-13T02:24:33.935Z,67.60
2018-05-13T02:27:02.149Z,67.90
2018-05-13T02:29:29.599Z,67.20
2018-05-13T02:31:57.818Z,68.20
2018-05-13T02:34:25.274Z,68.00
2018-05-13T02:36:52.722Z,68.00
2018-05-13T02:39:20.940Z,68.80
2018-05-13T02:41:48.395Z,68.80
2018-05-13T02:44:16.606Z,70.30
2018-05-13T02:46:44.061Z,70.20
2018-05-13T02:49:11.508Z,71.50
2018-05-13T02:51:39.784Z,73.90
2018-05-13T02:54:08.113Z,75.00
2018-05-13T02:56:35.605Z,75.00
2018-05-13T02:59:03.054Z,74.50
2018-05-13T03:01:30.519Z,76.40
2018-05-13T03:03:57.997Z,76.50
2018-05-13T03:06:25.444Z,77.20
2018-05-13T03:08:52.904Z,77.60
2018-05-13T03:11:21.116Z,77.30
2018-05-13T03:13:48.572Z,77.30
2018-05-13T03:16:16.025Z,77.40
2018-05-13T03:18:44.242Z,78.50
2018-05-13T03:21:11.721Z,78.40
2018-05-13T03:23:39.185Z,78.60
2018-05-13T03:26:06.640Z,79.20
2018-05-13T03:28:34.093Z,79.90
2018-05-13T03:31:02.328Z,79.80
2018-05-13T03:33:29.769Z,79.80
2018-05-13T03:35:57.235Z,79.80
2018-05-13T03:38:24.691Z,80.60
2018-05-13T03:40:52.163Z,80.60
2018-05-13T03:43:19.615Z,80.80
2018-05-13T03:45:47.846Z,80.00
2018-05-13T03:48:15.317Z,79.90
2018-05-13T03:50:42.805Z,80.10
2018-05-13T03:53:10.251Z,80.40
2018-05-13T03:55:37.710Z,80.80
2018-05-13T03:58:05.166Z,81.50
2018-05-13T04:00:32.637Z,81.80
2018-05-13T04:03:00.094Z,82.40
2018-05-13T04:05:27.559Z,81.90
2018-05-13T04:11:21.266Z,80.80
2018-05-13T04:14:01.422Z,82.30
2018-05-13T04:16:28.886Z,81.70
2018-05-13T04:18:56.413Z,81.70
2018-05-13T04:21:23.882Z,82.10
2018-05-13T04:23:51.346Z,82.30
2018-05-13T04:26:18.809Z,82.40
2018-05-13T04:28:46.257Z,82.20
2018-05-13T04:31:14.485Z,82.60
2018-05-13T04:33:41.950Z,82.50
2018-05-13T04:36:09.408Z,82.90
2018-05-13T04:38:36.862Z,82.80
2018-05-13T04:41:04.340Z,82.90
2018-05-13T04:43:31.794Z,83.70
2018-05-13T04:46:00.289Z,82.70
2018-05-13T04:48:28.511Z,83.10
2018-05-13T04:50:55.968Z,83.10
2018-05-13T04:53:23.429Z,83.00
2018-05-13T04:55:50.900Z,83.70
2018-05-13T04:58:18.360Z,84.20
2018-05-13T05:00:45.826Z,83.80
2018-05-13T05:03:13.315Z,84.10
2018-05-13T05:05:40.770Z,83.90
2018-05-13T05:08:08.217Z,83.60
2018-05-13T05:10:36.454Z,82.70
2018-05-13T05:13:03.914Z,82.70
2018-05-13T05:15:31.374Z,83.10
2018-05-13T05:17:58.826Z,82.90
2018-05-13T05:20:26.307Z,82.10
2018-05-13T05:22:53.762Z,82.70
2018-05-13T05:25:21.224Z,82.10
2018-05-13T05:27:49.460Z,82.50
2018-05-13T05:30:16.906Z,82.50
2018-05-13T05:32:44.363Z,82.40
2018-05-13T05:35:11.825Z,82.70
2018-05-13T05:37:39.272Z,82.70
2018-05-13T05:40:07.497Z,82.20
2018-05-13T05:42:34.950Z,82.20
2018-05-13T05:45:02.401Z,82.60
2018-05-13T05:47:30.620Z,83.20
2018-05-13T05:49:58.072Z,83.20
2018-05-13T05:52:25.538Z,83.10
2018-05-13T05:54:52.994Z,83.10
2018-05-13T05:57:21.215Z,83.40
2018-05-13T05:59:48.669Z,83.40
2018-05-13T06:02:16.142Z,83.00
2018-05-13T06:04:43.590Z,82.40
2018-05-13T06:07:11.820Z,82.40
2018-05-13T06:09:39.277Z,82.40
2018-05-13T06:12:06.750Z,81.90
2018-05-13T06:14:34.218Z,82.00
2018-05-13T06:17:01.676Z,82.10
2018-05-13T06:19:29.134Z,81.30
2018-05-13T06:21:56.606Z,78.60
2018-05-13T06:24:24.048Z,80.10
2018-05-13T06:26:52.283Z,77.20
2018-05-13T06:29:19.752Z,77.00
2018-05-13T06:31:47.229Z,77.50
2018-05-13T06:34:14.678Z,78.50
2018-05-13T06:36:42.143Z,78.40
2018-05-13T06:39:09.678Z,77.30
2018-05-13T06:41:37.136Z,75.40
2018-05-13T06:44:06.122Z,77.00
2018-05-13T06:46:33.583Z,77.10
2018-05-13T06:49:01.037Z,78.00
2018-05-13T06:51:28.588Z,77.10
2018-05-13T06:53:56.000Z,77.00
2018-05-13T06:56:23.470Z,76.00
2018-05-13T06:58:50.912Z,76.00
2018-05-13T07:01:18.386Z,75.60
2018-05-13T07:03:45.863Z,76.60
2018-05-13T07:06:13.330Z,76.30
2018-05-13T07:08:40.784Z,76.10
2018-05-13T07:11:08.248Z,76.10
2018-05-13T07:13:35.705Z,75.90
2018-05-13T07:16:03.969Z,76.40
2018-05-13T07:18:31.412Z,76.40
2018-05-13T07:20:58.882Z,76.30
2018-05-13T07:23:26.345Z,75.50
2018-05-13T07:25:53.813Z,75.40
2018-05-13T07:28:21.261Z,75.80
2018-05-13T07:30:48.730Z,74.10
2018-05-13T07:33:16.193Z,75.20
2018-05-13T07:35:43.670Z,75.10
2018-05-13T07:38:11.137Z,74.60
2018-05-13T07:40:38.610Z,75.50
2018-05-13T07:43:06.066Z,74.80
2018-05-13T07:45:33.516Z,75.50
2018-05-13T07:48:01.749Z,74.80
2018-05-13T07:50:29.225Z,74.70
2018-05-13T07:52:56.693Z,75.00
2018-05-13T07:55:24.159Z,75.70
2018-05-13T07:57:51.675Z,75.40
2018-05-13T08:00:19.098Z,75.30
2018-05-13T08:02:46.572Z,75.30
2018-05-13T08:05:14.028Z,74.90
2018-05-13T08:07:41.493Z,74.90
2018-05-13T08:10:08.957Z,74.90
2018-05-13T08:12:36.426Z,74.30
2018-05-13T08:15:03.868Z,72.60
2018-05-13T08:17:31.328Z,71.90
2018-05-13T08:19:59.549Z,73.20
2018-05-13T08:22:27.013Z,73.20
2018-05-13T08:24:54.469Z,74.00
2018-05-13T08:27:21.928Z,73.60
2018-05-13T08:29:49.377Z,73.50
2018-05-13T08:32:17.610Z,74.80
2018-05-13T08:34:45.062Z,74.40
2018-05-13T08:37:12.516Z,75.00
2018-05-13T08:39:40.842Z,74.70
2018-05-13T08:42:08.317Z,74.10
2018-05-13T08:44:35.770Z,74.30
2018-05-13T08:47:03.232Z,74.40
2018-05-13T08:49:30.762Z,73.10
2018-05-13T08:51:58.226Z,72.70
2018-05-13T08:54:26.453Z,71.30
2018-05-13T08:56:53.910Z,71.00
2018-05-13T08:59:22.134Z,70.90
2018-05-13T09:01:49.590Z,70.80
2018-05-13T09:04:17.032Z,71.70
2018-05-13T09:06:45.267Z,70.50
2018-05-13T09:09:12.729Z,70.50
2018-05-13T09:11:40.186Z,70.40
2018-05-13T09:14:07.675Z,70.10
2018-05-13T09:16:35.113Z,70.30
2018-05-13T09:19:03.319Z,70.80
2018-05-13T09:21:30.778Z,70.80
2018-05-13T09:23:58.263Z,71.00
2018-05-13T09:26:25.717Z,71.40
2018-05-13T09:28:53.157Z,70.80
2018-05-13T09:31:21.386Z,68.70
2018-05-13T09:33:48.842Z,68.60
2018-05-13T09:36:16.305Z,68.30
2018-05-13T09:38:43.757Z,68.30
2018-05-13T09:41:11.978Z,70.50
2018-05-13T09:43:39.430Z,70.40
2018-05-13T09:46:06.885Z,69.10
2018-05-13T09:48:34.345Z,67.80
2018-05-13T09:51:02.570Z,66.30
2018-05-13T09:53:30.037Z,66.10
2018-05-13T09:55:57.481Z,65.40
2018-05-13T09:58:24.947Z,66.30
2018-05-13T10:00:52.402Z,64.30
2018-05-13T10:03:20.629Z,62.90
2018-05-13T10:05:48.079Z,62.80
2018-05-13T10:08:15.543Z,64.00
2018-05-13T10:10:42.988Z,62.60
2018-05-13T10:13:11.209Z,60.50
2018-05-13T10:15:38.663Z,60.50
2018-05-13T10:18:06.191Z,59.70
2018-05-13T10:20:34.426Z,58.40
2018-05-13T10:23:01.896Z,57.90
2018-05-13T10:25:29.345Z,58.20
2018-05-13T10:27:57.573Z,56.90
2018-05-13T10:30:25.030Z,56.90
2018-05-13T10:32:52.506Z,57.70
2018-05-13T10:35:19.955Z,58.70
2018-05-13T10:37:47.440Z,57.80
2018-05-13T10:40:14.894Z,57.70
2018-05-13T10:42:42.498Z,57.20
2018-05-13T10:45:09.953Z,58.00
2018-05-13T10:47:37.422Z,55.90
2018-05-13T10:50:04.893Z,56.80
2018-05-13T10:52:32.358Z,56.50
2018-05-13T10:54:59.810Z,56.80
2018-05-13T10:57:27.274Z,57.40
2018-05-13T10:59:54.726Z,58.00
2018-05-13T11:02:23.336Z,59.30
2018-05-13T11:04:51.592Z,59.20
2018-05-13T11:07:18.929Z,58.60
2018-05-13T11:09:46.376Z,58.30
2018-05-13T11:12:13.846Z,58.10
2018-05-13T11:14:41.305Z,58.20
2018-05-13T11:17:08.771Z,56.90
2018-05-13T11:19:36.257Z,57.20
2018-05-13T11:22:03.716Z,59.10
2018-05-13T11:24:31.170Z,58.30
2018-05-13T11:26:58.711Z,60.60
2018-05-13T11:29:26.846Z,60.60
2018-05-13T11:31:54.307Z,60.60
2018-05-13T11:34:21.761Z,60.20
2018-05-13T11:36:49.226Z,61.50
2018-05-13T11:39:17.457Z,62.30
2018-05-13T11:41:44.914Z,62.30
2018-05-13T11:44:12.370Z,61.70
2018-05-13T11:46:39.892Z,61.40
2018-05-13T11:49:07.292Z,62.90
2018-05-13T11:51:35.527Z,62.90
2018-05-13T11:54:02.986Z,62.90
2018-05-13T11:56:30.445Z,62.30
2018-05-13T11:58:57.894Z,63.90
2018-05-13T12:01:25.347Z,63.40
2018-05-13T12:03:53.578Z,64.40
2018-05-13T12:06:21.030Z,64.40
2018-05-13T12:08:48.492Z,63.60
2018-05-13T12:11:15.946Z,63.40
2018-05-13T12:13:44.178Z,63.90
2018-05-13T12:16:11.624Z,63.80
2018-05-13T12:18:39.098Z,63.40
2018-05-13T12:21:06.603Z,62.70
2018-05-13T12:23:34.014Z,63.10
2018-05-13T12:26:02.330Z,62.00
2018-05-13T12:28:29.797Z,62.00
2018-05-13T12:30:57.250Z,61.50
2018-05-13T12:33:24.719Z,62.40
2018-05-13T12:35:52.174Z,62.00
2018-05-13T12:38:20.406Z,61.00
2018-05-13T12:40:47.857Z,60.80
2018-05-13T12:43:15.321Z,60.90
2018-05-13T12:45:42.775Z,61.50
2018-05-13T12:48:10.238Z,62.80
2018-05-13T12:50:38.557Z,61.70
2018-05-13T12:53:06.021Z,61.60
2018-05-13T12:55:33.464Z,61.50
2018-05-13T12:58:00.936Z,62.60
2018-05-13T13:00:28.386Z,61.60
2018-05-13T13:02:56.626Z,59.30
2018-05-13T13:05:24.068Z,59.20
2018-05-13T13:07:51.522Z,59.60
2018-05-13T13:10:19.745Z,59.60
2018-05-13T13:12:47.205Z,59.50
2018-05-13T13:15:14.673Z,58.70
2018-05-13T13:17:42.122Z,60.30
2018-05-13T13:20:10.432Z,59.30
2018-05-13T13:22:37.798Z,59.30
2018-05-13T13:25:05.262Z,59.50
2018-05-13T13:27:32.735Z,58.90
2018-05-13T13:30:00.187Z,60.20
2018-05-13T13:32:27.677Z,59.70
2018-05-13T13:34:55.142Z,60.00
2018-05-13T13:37:22.603Z,61.50
2018-05-13T13:39:50.101Z,60.70
2018-05-13T13:42:17.529Z,60.40
2018-05-13T13:44:44.994Z,59.70
2018-05-13T13:47:13.240Z,60.20
2018-05-13T13:49:40.834Z,60.10
2018-05-13T13:52:08.286Z,60.70
2018-05-13T13:54:35.745Z,60.70
2018-05-13T13:57:03.193Z,60.80
2018-05-13T13:59:30.667Z,60.10
2018-05-13T14:01:58.112Z,60.70
2018-05-13T14:04:25.738Z,60.10
2018-05-13T14:06:53.184Z,60.20
2018-05-13T14:09:20.635Z,61.10
2018-05-13T14:11:48.095Z,61.80
2018-05-13T14:14:15.548Z,61.10
2018-05-13T14:16:43.020Z,61.80
2018-05-13T14:19:10.465Z,61.70
2018-05-13T14:21:37.931Z,60.80
2018-05-13T14:24:05.382Z,59.60
2018-05-13T14:26:32.850Z,59.30
2018-05-13T14:29:00.312Z,59.30
2018-05-13T14:31:27.771Z,58.90
2018-05-13T14:33:55.239Z,59.10
2018-05-13T14:36:22.797Z,59.30
2018-05-13T14:38:50.247Z,59.40
2018-05-13T14:41:17.786Z,60.60
2018-05-13T14:43:45.175Z,60.80
2018-05-13T14:46:13.403Z,60.40
2018-05-13T14:48:40.858Z,60.40
2018-05-13T14:51:08.327Z,58.70
2018-05-13T14:53:35.779Z,57.50
2018-05-13T14:56:03.243Z,58.20
2018-05-13T14:58:30.695Z,57.50
2018-05-13T15:00:58.923Z,58.40
2018-05-13T15:03:26.410Z,58.40
2018-05-13T15:05:53.895Z,57.30
2018-05-13T15:08:21.354Z,58.30
2018-05-13T15:10:48.797Z,58.50
2018-05-13T15:13:16.286Z,58.00
2018-05-13T15:15:43.746Z,58.70
2018-05-13T15:18:11.216Z,58.90
2018-05-13T15:20:38.667Z,59.20
2018-05-13T15:23:06.131Z,60.40
2018-05-13T15:25:33.577Z,60.60
2018-05-13T15:28:01.808Z,61.30
2018-05-13T15:30:29.262Z,61.30
2018-05-13T15:32:56.729Z,60.60
2018-05-13T15:35:24.182Z,61.00
2018-05-13T15:37:51.684Z,61.60
2018-05-13T15:40:19.142Z,61.80
2018-05-13T15:42:46.670Z,61.50
2018-05-13T15:45:14.045Z,61.10
2018-05-13T15:47:42.274Z,62.60
2018-05-13T15:50:09.822Z,62.50
2018-05-13T15:52:38.041Z,62.00
2018-05-13T15:55:05.592Z,61.90
2018-05-13T15:57:32.957Z,61.40
2018-05-13T16:00:00.422Z,62.20
2018-05-13T16:02:27.986Z,62.50
2018-05-13T16:04:56.197Z,63.30
2018-05-13T16:07:23.660Z,63.20
2018-05-13T16:09:51.147Z,62.60
2018-05-13T16:12:18.607Z,63.10
2018-05-13T16:14:46.245Z,63.30
2018-05-13T16:17:13.709Z,63.90
2018-05-13T16:19:41.937Z,63.60
2018-05-13T16:22:09.401Z,63.60
2018-05-13T16:24:36.864Z,63.10
2018-05-13T16:27:04.333Z,63.10
2018-05-13T16:29:31.799Z,63.10
2018-05-13T16:31:59.254Z,64.40
2018-05-13T16:34:26.740Z,63.90
2018-05-13T16:36:54.192Z,63.70
2018-05-13T16:39:21.677Z,63.80
2018-05-13T16:41:49.149Z,64.50
2018-05-13T16:44:16.615Z,64.50
2018-05-13T16:46:44.078Z,64.70
2018-05-13T16:49:11.552Z,64.50
2018-05-13T16:51:39.025Z,63.90
2018-05-13T16:54:06.495Z,64.40
2018-05-13T16:56:33.953Z,64.60
2018-05-13T16:59:01.418Z,64.50
2018-05-13T17:01:28.890Z,64.50
2018-05-13T17:03:56.357Z,64.80
2018-05-13T17:06:23.822Z,64.80
2018-05-13T17:08:51.300Z,64.60
2018-05-13T17:11:18.762Z,65.20
2018-05-13T17:13:46.220Z,65.60
2018-05-13T17:16:13.678Z,65.30
2018-05-13T17:18:41.910Z,65.50
2018-05-13T17:21:09.373Z,65.50
2018-05-13T17:23:36.859Z,65.70
2018-05-13T17:28:38.360Z,65.60
2018-05-13T17:31:05.826Z,66.30
2018-05-13T17:33:33.298Z,66.30
2018-05-13T17:36:00.748Z,65.90
2018-05-13T17:38:28.219Z,66.70
2018-05-13T17:40:55.678Z,66.80
2018-05-13T17:43:23.136Z,66.60
2018-05-13T17:45:50.599Z,66.30
2018-05-13T17:48:18.084Z,66.20
2018-05-13T17:50:45.542Z,66.00
2018-05-13T17:53:13.006Z,65.90
2018-05-13T17:55:40.456Z,66.10
2018-05-13T17:58:08.734Z,66.80
2018-05-13T18:00:36.184Z,66.80
2018-05-13T18:03:03.755Z,66.70
2018-05-13T18:05:31.106Z,66.60
2018-05-13T18:07:58.576Z,66.60
2018-05-13T18:10:26.035Z,67.30
2018-05-13T18:12:53.489Z,67.50
2018-05-13T18:15:21.068Z,67.70
2018-05-13T18:17:48.519Z,67.50
2018-05-13T18:20:16.028Z,68.00
2018-05-13T18:22:43.558Z,67.50
2018-05-13T18:25:11.031Z,67.70
2018-05-13T18:27:38.486Z,68.40
2018-05-13T18:30:05.991Z,68.60
2018-05-13T18:32:33.437Z,68.60
2018-05-13T18:35:00.903Z,68.70
2018-05-13T18:37:28.357Z,68.60
2018-05-13T18:39:56.585Z,68.40
2018-05-13T18:42:24.051Z,68.40
2018-05-13T18:44:51.522Z,68.90
2018-05-13T18:47:18.982Z,68.90
2018-05-13T18:49:46.719Z,69.40
2018-05-13T18:52:15.107Z,70.00
2018-05-13T18:54:43.385Z,69.70
2018-05-13T18:57:11.135Z,69.50
2018-05-13T18:59:38.603Z,69.80
2018-05-13T19:02:06.102Z,70.10
2018-05-13T19:04:33.570Z,69.70
2018-05-13T19:07:01.793Z,69.70
2018-05-13T19:09:29.264Z,69.70
2018-05-13T19:11:56.774Z,69.80
2018-05-13T19:14:24.213Z,70.20
2018-05-13T19:16:51.922Z,70.40
2018-05-13T19:19:19.394Z,70.50
2018-05-13T19:21:46.855Z,70.40
2018-05-13T19:24:14.312Z,70.20
2018-05-13T19:26:41.770Z,70.30
2018-05-13T19:29:09.242Z,69.90
2018-05-13T19:31:36.706Z,70.10
2018-05-13T19:37:02.506Z,70.30
2018-05-13T19:39:29.964Z,70.40
2018-05-13T19:41:57.422Z,70.40
2018-05-13T19:44:24.889Z,70.40
2018-05-13T19:46:52.355Z,70.50
2018-05-13T19:49:19.824Z,70.70
2018-05-13T19:51:47.302Z,71.00
2018-05-13T19:54:14.768Z,70.80
2018-05-13T19:56:42.301Z,70.70
2018-05-13T19:59:10.526Z,71.00
2018-05-13T20:01:38.010Z,70.90
2018-05-13T20:04:05.544Z,71.20
2018-05-13T20:06:33.003Z,71.00
2018-05-13T20:09:00.477Z,71.20
2018-05-13T20:11:27.931Z,71.00
2018-05-13T20:13:55.398Z,71.10
2018-05-13T20:16:22.967Z,71.30
2018-05-13T20:18:51.215Z,71.60
2018-05-13T20:21:18.688Z,71.60
2018-05-13T20:23:46.165Z,71.70
2018-05-13T20:26:13.614Z,72.00
2018-05-13T20:28:41.073Z,72.00
2018-05-13T20:31:08.532Z,72.10
2018-05-13T20:33:35.990Z,72.20
2018-05-13T20:36:03.531Z,72.40
2018-05-13T20:38:31.009Z,72.60
2018-05-13T20:40:58.572Z,72.50
2018-05-13T20:43:26.037Z,72.30
2018-05-13T20:45:54.274Z,71.90
2018-05-13T20:48:21.729Z,71.80
2018-05-13T20:50:49.324Z,71.70
2018-05-13T20:53:16.798Z,71.80
2018-05-13T20:55:44.352Z,71.80
2018-05-13T20:58:11.921Z,72.00
2018-05-13T21:00:39.432Z,72.30
2018-05-13T21:03:07.678Z,72.00
2018-05-13T21:05:35.158Z,71.90
2018-05-13T21:08:02.656Z,72.20
2018-05-13T21:10:31.011Z,72.20
2018-05-13T21:12:58.586Z,72.10
2018-05-13T21:15:26.041Z,72.20
2018-05-13T21:17:53.497Z,72.60
2018-05-13T21:20:20.970Z,72.90
2018-05-13T21:22:48.433Z,73.00
2018-05-13T21:25:15.907Z,73.50
2018-05-13T21:27:43.362Z,74.00
2018-05-13T21:30:11.444Z,74.30
2018-05-13T21:32:38.817Z,74.60
2018-05-13T21:35:06.274Z,74.90
2018-05-13T21:37:34.493Z,75.20
2018-05-13T21:40:01.976Z,75.10
2018-05-13T21:42:29.433Z,75.50
2018-05-13T21:44:56.898Z,75.50
2018-05-13T21:47:24.376Z,75.40
2018-05-13T21:49:51.842Z,75.50
2018-05-13T21:52:19.292Z,75.30
2018-05-13T21:54:46.765Z,75.30
2018-05-13T21:57:14.223Z,75.70
2018-05-13T21:59:41.714Z,75.50
2018-05-13T22:02:09.174Z,75.40
2018-05-13T22:04:36.654Z,75.60
2018-05-13T22:07:04.129Z,76.20
2018-05-13T22:09:31.606Z,76.60
2018-05-13T22:11:59.066Z,77.40
2018-05-13T22:14:26.535Z,78.40
2018-05-13T22:16:53.985Z,79.20
2018-05-13T22:19:21.529Z,80.00
2018-05-13T22:21:49.753Z,81.70
2018-05-13T22:24:17.212Z,81.40
2018-05-13T22:26:44.673Z,82.10
2018-05-13T22:29:13.112Z,82.60
2018-05-13T22:31:40.597Z,83.40
2018-05-13T22:34:08.818Z,84.40
2018-05-13T22:36:36.403Z,84.50
2018-05-13T22:39:03.750Z,85.50
2018-05-13T22:41:32.355Z,85.00
2018-05-13T22:43:59.796Z,85.90
2018-05-13T22:46:28.025Z,86.60
2018-05-13T22:48:55.498Z,86.60
2018-05-13T22:51:22.955Z,86.70
2018-05-13T22:53:50.462Z,87.20
2018-05-13T22:56:17.892Z,87.90
2018-05-13T22:58:45.357Z,88.00
2018-05-13T23:01:12.830Z,88.40
2018-05-13T23:03:40.280Z,87.50
2018-05-13T23:06:08.508Z,87.90
2018-05-13T23:08:35.959Z,87.90
2018-05-13T23:11:03.441Z,88.10
2018-05-13T23:13:30.893Z,88.20
2018-05-13T23:15:58.362Z,88.70
2018-05-13T23:18:25.824Z,88.40
2018-05-13T23:20:53.289Z,88.10
2018-05-13T23:23:20.820Z,88.30
2018-05-13T23:25:48.280Z,88.20
2018-05-13T23:28:15.750Z,88.20
2018-05-13T23:30:43.219Z,88.40
2018-05-13T23:33:10.672Z,88.00
2018-05-13T23:35:38.146Z,89.10
2018-05-13T23:38:05.606Z,88.70
2018-05-13T23:40:33.085Z,88.90
2018-05-13T23:43:00.537Z,88.50
2018-05-13T23:45:27.996Z,88.50
2018-05-13T23:47:55.457Z,89.10
2018-05-13T23:50:22.937Z,88.50
2018-05-13T23:52:50.401Z,88.70
2018-05-13T23:55:17.861Z,88.90
2018-05-13T23:57:45.326Z,88.90
